createdAt,value
2018-02-08T00:01:13.462Z,64.33
2018-02-08T00:03:41.625Z,62.97
2018-02-08T00:06:09.777Z,62.60
2018-02-08T00:08:38.697Z,62.80
2018-02-08T00:11:06.841Z,68.83
2018-02-08T00:13:35.780Z,63.83
2018-02-08T00:16:04.946Z,68.63
2018-02-08T00:18:50.037Z,64.43
2018-02-08T00:21:18.172Z,73.43
2018-02-08T00:23:47.094Z,65.27
2018-02-08T00:26:15.228Z,71.00
2018-02-08T00:28:48.386Z,65.00
2018-02-08T00:31:16.531Z,67.87
2018-02-08T00:33:44.665Z,67.23
2018-02-08T00:36:12.857Z,66.90
2018-02-08T00:38:41.005Z,72.23
2018-02-08T00:41:09.166Z,73.23
2018-02-08T00:43:37.301Z,75.00
2018-02-08T00:46:05.475Z,70.70
2018-02-08T00:48:35.597Z,70.20
2018-02-08T00:51:03.754Z,69.03
2018-02-08T00:53:31.898Z,73.83
2018-02-08T00:56:00.818Z,71.83
2018-02-08T00:58:36.685Z,77.33
2018-02-08T01:01:04.849Z,84.70
2018-02-08T01:03:32.990Z,83.90
2018-02-08T01:06:01.900Z,72.43
2018-02-08T01:08:47.386Z,74.60
2018-02-08T01:11:15.546Z,71.43
2018-02-08T01:13:43.685Z,72.23
2018-02-08T01:16:11.881Z,72.37
2018-02-08T01:18:41.736Z,73.50
2018-02-08T01:21:09.876Z,73.00
2018-02-08T01:23:38.801Z,76.20
2018-02-08T01:26:06.971Z,72.27
2018-02-08T01:28:38.857Z,72.63
2018-02-08T01:31:06.999Z,76.27
2018-02-08T01:33:35.156Z,74.80
2018-02-08T01:36:03.300Z,76.03
2018-02-08T01:38:38.933Z,76.17
2018-02-08T01:41:07.071Z,78.63
2018-02-08T01:43:35.240Z,74.33
2018-02-08T01:46:11.241Z,73.60
2018-02-08T01:48:47.176Z,74.80
2018-02-08T01:51:15.321Z,77.47
2018-02-08T01:53:43.475Z,84.77
2018-02-08T01:56:12.373Z,81.80
2018-02-08T01:58:43.770Z,75.63
2018-02-08T02:01:11.911Z,81.27
2018-02-08T02:03:40.075Z,74.27
2018-02-08T02:06:08.214Z,78.00
2018-02-08T02:08:36.369Z,80.57
2018-02-08T02:11:04.505Z,78.03
2018-02-08T02:13:32.660Z,84.37
2018-02-08T02:16:00.824Z,79.40
2018-02-08T02:18:37.118Z,79.00
2018-02-08T02:21:05.253Z,78.57
2018-02-08T02:23:33.408Z,83.47
2018-02-08T02:26:01.542Z,79.27
2018-02-08T02:28:36.793Z,82.13
2018-02-08T02:31:04.929Z,76.17
2018-02-08T02:33:33.093Z,81.03
2018-02-08T02:36:02.006Z,78.60
2018-02-08T02:38:30.237Z,81.90
2018-02-08T02:40:59.206Z,87.67
2018-02-08T02:43:27.358Z,84.40
2018-02-08T02:45:55.566Z,86.77
2018-02-08T02:48:28.346Z,86.73
2018-02-08T02:50:56.546Z,88.47
2018-02-08T02:53:25.475Z,85.17
2018-02-08T02:55:53.656Z,79.40
2018-02-08T02:58:23.792Z,89.87
2018-02-08T03:00:51.990Z,76.27
2018-02-08T03:03:20.125Z,79.10
2018-02-08T03:05:48.281Z,78.97
2018-02-08T03:08:30.296Z,84.63
2018-02-08T03:10:58.449Z,81.20
2018-02-08T03:13:26.592Z,84.40
2018-02-08T03:15:55.521Z,81.50
2018-02-08T03:18:23.667Z,88.23
2018-02-08T03:20:51.816Z,80.80
2018-02-08T03:23:19.978Z,79.37
2018-02-08T03:25:48.125Z,83.10
2018-02-08T03:28:31.428Z,75.57
2018-02-08T03:30:59.563Z,80.00
2018-02-08T03:33:27.720Z,87.83
2018-02-08T03:35:55.848Z,82.97
2018-02-08T03:38:29.480Z,86.37
2018-02-08T03:40:57.633Z,78.87
2018-02-08T03:43:25.793Z,79.07
2018-02-08T03:45:53.932Z,82.60
2018-02-08T03:48:27.401Z,87.37
2018-02-08T03:50:55.536Z,88.27
2018-02-08T03:53:23.702Z,85.97
2018-02-08T03:55:51.868Z,93.17
2018-02-08T03:58:28.591Z,78.27
2018-02-08T04:00:56.750Z,91.30
2018-02-08T04:03:24.912Z,95.43
2018-02-08T04:05:53.052Z,95.43
2018-02-08T04:08:21.985Z,76.07
2018-02-08T04:10:50.125Z,82.20
2018-02-08T04:13:19.045Z,86.87
2018-02-08T04:15:47.184Z,91.10
2018-02-08T04:18:16.127Z,83.20
2018-02-08T04:20:44.273Z,84.27
2018-02-08T04:23:12.478Z,91.63
2018-02-08T04:25:40.613Z,80.47
2018-02-08T04:28:08.757Z,90.53
2018-02-08T04:30:37.689Z,86.40
2018-02-08T04:33:05.824Z,92.23
2018-02-08T04:35:34.753Z,86.37
2018-02-08T04:38:02.894Z,89.57
2018-02-08T04:40:48.934Z,85.23
2018-02-08T04:43:34.861Z,88.40
2018-02-08T04:46:20.648Z,79.43
2018-02-08T04:48:55.956Z,84.10
2018-02-08T04:51:24.097Z,84.50
2018-02-08T04:53:52.229Z,88.20
2018-02-08T04:56:20.908Z,89.03
2018-02-08T04:58:56.842Z,80.23
2018-02-08T05:01:24.977Z,85.80
2018-02-08T05:03:53.108Z,93.07
2018-02-08T05:06:21.265Z,79.27
2018-02-08T05:08:49.410Z,87.70
2018-02-08T05:11:17.560Z,87.30
2018-02-08T05:13:46.469Z,90.40
2018-02-08T05:16:14.648Z,97.60
2018-02-08T05:19:05.421Z,95.07
2018-02-08T05:21:34.351Z,76.67
2018-02-08T05:24:02.487Z,82.77
2018-02-08T05:26:31.418Z,92.47
2018-02-08T05:29:12.564Z,86.63
2018-02-08T05:31:41.485Z,88.17
2018-02-08T05:34:09.629Z,93.07
2018-02-08T05:36:38.544Z,90.27
2018-02-08T05:39:10.298Z,75.57
2018-02-08T05:41:38.448Z,92.33
2018-02-08T05:44:06.605Z,83.40
2018-02-08T05:46:35.529Z,86.93
2018-02-08T05:49:11.596Z,79.97
2018-02-08T05:51:39.757Z,90.03
2018-02-08T05:54:07.913Z,97.57
2018-02-08T05:56:36.073Z,90.53
2018-02-08T05:59:08.194Z,97.13
2018-02-08T06:01:36.349Z,84.30
2018-02-08T06:04:04.487Z,95.23
2018-02-08T06:06:33.422Z,93.97
2018-02-08T06:09:12.460Z,96.27
2018-02-08T06:11:40.622Z,102.00
2018-02-08T06:14:08.826Z,96.93
2018-02-08T06:16:36.948Z,82.90
2018-02-08T06:19:13.233Z,92.10
2018-02-08T06:21:41.392Z,88.17
2018-02-08T06:24:09.588Z,89.53
2018-02-08T06:26:37.761Z,88.90
2018-02-08T06:29:18.789Z,92.67
2018-02-08T06:31:47.724Z,90.00
2018-02-08T06:34:15.861Z,95.03
2018-02-08T06:36:44.790Z,102.77
2018-02-08T06:39:16.950Z,92.77
2018-02-08T06:41:45.108Z,191.43
2018-02-08T06:44:13.249Z,84.80
2018-02-08T06:46:42.229Z,90.40
2018-02-08T06:49:11.285Z,84.37
2018-02-08T06:51:39.445Z,83.67
2018-02-08T06:54:07.578Z,86.20
2018-02-08T06:56:35.745Z,85.63
2018-02-08T06:59:16.817Z,85.63
2018-02-08T07:01:44.982Z,76.40
2018-02-08T07:04:13.149Z,83.83
2018-02-08T07:06:41.405Z,82.03
2018-02-08T07:09:13.202Z,76.70
2018-02-08T07:11:41.370Z,70.27
2018-02-08T07:14:09.556Z,90.20
2018-02-08T07:16:38.514Z,92.23
2018-02-08T07:19:17.340Z,88.53
2018-02-08T07:21:45.480Z,87.63
2018-02-08T07:24:13.644Z,86.57
2018-02-08T07:26:41.806Z,89.90
2018-02-08T07:29:10.827Z,82.43
2018-02-08T07:31:38.968Z,75.43
2018-02-08T07:34:07.903Z,79.40
2018-02-08T07:36:36.065Z,88.03
2018-02-08T07:39:06.101Z,81.33
2018-02-08T07:41:34.261Z,86.37
2018-02-08T07:44:02.422Z,79.63
2018-02-08T07:46:30.584Z,84.60
2018-02-08T07:49:05.902Z,76.63
2018-02-08T07:51:34.041Z,78.17
2018-02-08T07:54:02.188Z,79.53
2018-02-08T07:56:30.335Z,87.90
2018-02-08T07:59:10.949Z,81.97
2018-02-08T08:01:39.082Z,88.73
2018-02-08T08:04:07.243Z,81.87
2018-02-08T08:06:36.155Z,77.37
2018-02-08T08:09:11.992Z,78.00
2018-02-08T08:11:40.133Z,84.37
2018-02-08T08:14:08.281Z,75.43
2018-02-08T08:16:36.555Z,76.33
2018-02-08T08:19:06.662Z,79.63
2018-02-08T08:21:34.825Z,87.07
2018-02-08T08:24:02.968Z,84.47
2018-02-08T08:26:31.910Z,80.27
2018-02-08T08:29:00.147Z,88.37
2018-02-08T08:31:29.084Z,88.17
2018-02-08T08:33:57.225Z,79.80
2018-02-08T08:36:25.389Z,80.90
2018-02-08T08:38:57.166Z,67.93
2018-02-08T08:41:25.441Z,73.13
2018-02-08T08:43:53.621Z,78.50
2018-02-08T08:46:21.842Z,76.10
2018-02-08T08:48:55.421Z,76.90
2018-02-08T08:51:23.640Z,72.73
2018-02-08T08:53:51.789Z,71.77
2018-02-08T08:56:19.953Z,75.83
2018-02-08T08:58:50.045Z,72.00
2018-02-08T09:01:18.972Z,66.20
2018-02-08T09:03:47.116Z,79.13
2018-02-08T09:06:15.343Z,72.87
2018-02-08T09:08:51.441Z,71.87
2018-02-08T09:11:19.625Z,73.40
2018-02-08T09:13:47.766Z,98.80
2018-02-08T09:16:15.905Z,66.93
2018-02-08T09:18:44.888Z,66.17
2018-02-08T09:21:13.039Z,72.10
2018-02-08T09:23:41.879Z,65.10
2018-02-08T09:26:10.790Z,69.40
2018-02-08T09:28:38.963Z,69.57
2018-02-08T09:31:07.126Z,64.43
2018-02-08T09:33:35.294Z,63.93
2018-02-08T09:36:03.459Z,64.67
2018-02-08T09:38:35.698Z,61.87
2018-02-08T09:41:03.861Z,55.97
2018-02-08T09:43:32.030Z,64.50
2018-02-08T09:46:00.178Z,63.00
2018-02-08T09:48:36.045Z,60.20
2018-02-08T09:51:04.186Z,59.90
2018-02-08T09:53:32.349Z,58.27
2018-02-08T09:56:00.497Z,58.47
2018-02-08T09:58:28.639Z,62.63
2018-02-08T10:00:56.790Z,57.47
2018-02-08T10:03:24.935Z,55.00
2018-02-08T10:05:53.845Z,64.27
2018-02-08T10:08:21.972Z,56.70
2018-02-08T10:10:50.157Z,56.97
2018-02-08T10:13:19.064Z,60.87
2018-02-08T10:15:47.983Z,60.23
2018-02-08T10:18:19.538Z,63.97
2018-02-08T10:20:47.687Z,62.30
2018-02-08T10:23:15.836Z,62.03
2018-02-08T10:25:43.988Z,56.07
2018-02-08T10:28:40.216Z,55.83
2018-02-08T10:31:08.362Z,56.03
2018-02-08T10:33:36.504Z,63.97
2018-02-08T10:36:05.479Z,57.67
2018-02-08T10:38:33.642Z,58.77
2018-02-08T10:41:01.776Z,56.40
2018-02-08T10:43:29.912Z,59.50
2018-02-08T10:45:58.837Z,57.23
2018-02-08T10:48:45.320Z,59.97
2018-02-08T10:51:13.476Z,57.57
2018-02-08T10:53:42.377Z,59.13
2018-02-08T10:56:11.296Z,61.53
2018-02-08T10:58:39.448Z,60.10
2018-02-08T11:01:07.606Z,62.03
2018-02-08T11:03:36.510Z,57.67
2018-02-08T11:06:05.453Z,59.67
2018-02-08T11:08:33.591Z,60.83
2018-02-08T11:11:01.729Z,58.37
2018-02-08T11:13:30.645Z,57.30
2018-02-08T11:15:58.776Z,59.73
2018-02-08T11:18:29.881Z,55.40
2018-02-08T11:20:57.998Z,61.97
2018-02-08T11:23:26.928Z,56.17
2018-02-08T11:25:55.081Z,59.40
2018-02-08T11:28:31.282Z,54.77
2018-02-08T11:30:59.413Z,53.80
2018-02-08T11:33:28.325Z,57.73
2018-02-08T11:35:56.469Z,50.33
2018-02-08T11:38:33.710Z,57.60
2018-02-08T11:41:01.841Z,51.73
2018-02-08T11:43:30.753Z,52.53
2018-02-08T11:45:58.881Z,51.97
2018-02-08T11:48:28.965Z,56.60
2018-02-08T11:50:57.096Z,54.97
2018-02-08T11:53:25.248Z,54.67
2018-02-08T11:55:53.377Z,54.10
2018-02-08T11:58:29.238Z,53.57
2018-02-08T12:00:57.377Z,51.80
2018-02-08T12:03:25.524Z,57.17
2018-02-08T12:05:54.480Z,52.53
2018-02-08T12:08:22.649Z,51.63
2018-02-08T12:10:50.781Z,58.67
2018-02-08T12:13:19.009Z,54.90
2018-02-08T12:15:47.141Z,52.93
2018-02-08T12:18:24.251Z,54.27
2018-02-08T12:20:52.381Z,53.67
2018-02-08T12:23:21.297Z,55.87
2018-02-08T12:25:49.434Z,54.53
2018-02-08T12:28:21.997Z,59.33
2018-02-08T12:30:50.128Z,57.43
2018-02-08T12:33:18.260Z,57.17
2018-02-08T12:35:47.168Z,54.60
2018-02-08T12:38:18.745Z,56.93
2018-02-08T12:40:46.888Z,54.47
2018-02-08T12:43:15.025Z,54.90
2018-02-08T12:45:43.209Z,55.43
2018-02-08T12:48:12.108Z,57.90
2018-02-08T12:50:41.025Z,56.73
2018-02-08T12:53:09.163Z,58.73
2018-02-08T12:55:38.076Z,55.20
2018-02-08T12:58:06.969Z,61.83
2018-02-08T13:00:35.116Z,51.40
2018-02-08T13:03:03.269Z,51.23
2018-02-08T13:05:31.485Z,58.67
2018-02-08T13:07:59.612Z,54.47
2018-02-08T13:10:27.754Z,51.53
2018-02-08T13:12:55.881Z,51.20
2018-02-08T13:15:24.048Z,57.63
2018-02-08T13:17:52.197Z,51.20
2018-02-08T13:20:20.397Z,62.53
2018-02-08T13:22:48.528Z,54.17
2018-02-08T13:25:16.674Z,55.13
2018-02-08T13:27:44.825Z,50.53
2018-02-08T13:30:13.731Z,52.73
2018-02-08T13:32:42.657Z,47.83
2018-02-08T13:35:10.805Z,46.27
2018-02-08T13:37:38.954Z,51.73
2018-02-08T13:40:18.770Z,52.00
2018-02-08T13:42:46.936Z,48.83
2018-02-08T13:45:15.070Z,50.53
2018-02-08T13:47:43.224Z,52.13
2018-02-08T13:53:29.694Z,47.57
2018-02-08T13:59:22.800Z,47.67
2018-02-08T14:01:55.890Z,48.37
2018-02-08T14:04:24.017Z,52.07
2018-02-08T14:06:52.180Z,45.50
2018-02-08T14:09:29.582Z,49.93
2018-02-08T14:11:57.729Z,45.57
2018-02-08T14:14:26.633Z,49.53
2018-02-08T14:16:54.793Z,45.10
2018-02-08T14:19:25.736Z,47.20
2018-02-08T14:21:53.895Z,47.60
2018-02-08T14:24:22.054Z,45.17
2018-02-08T14:26:50.252Z,43.70
2018-02-08T14:29:19.145Z,50.13
2018-02-08T14:31:47.312Z,42.63
2018-02-08T14:34:15.497Z,46.97
2018-02-08T14:36:43.629Z,49.37
2018-02-08T14:39:19.046Z,55.30
2018-02-08T14:41:47.204Z,48.17
2018-02-08T14:44:15.361Z,51.13
2018-02-08T14:46:43.489Z,50.07
2018-02-08T14:49:18.888Z,52.57
2018-02-08T14:51:47.016Z,59.43
2018-02-08T14:54:15.167Z,50.47
2018-02-08T14:56:43.296Z,48.53
2018-02-08T14:59:18.773Z,53.37
2018-02-08T15:01:46.906Z,48.17
2018-02-08T15:04:15.053Z,50.10
2018-02-08T15:06:43.184Z,52.77
2018-02-08T15:09:16.485Z,49.10
2018-02-08T15:11:44.693Z,53.33
2018-02-08T15:14:13.670Z,52.60
2018-02-08T15:16:42.827Z,51.07
2018-02-08T15:19:14.346Z,53.47
2018-02-08T15:21:43.290Z,55.77
2018-02-08T15:24:11.529Z,58.07
2018-02-08T15:26:39.709Z,58.93
2018-02-08T15:29:08.969Z,64.97
2018-02-08T15:31:37.174Z,63.33
2018-02-08T15:34:05.365Z,56.97
2018-02-08T15:36:33.545Z,60.17
2018-02-08T15:39:02.739Z,58.53
2018-02-08T15:41:30.970Z,66.97
2018-02-08T15:43:59.162Z,64.67
2018-02-08T15:46:27.366Z,71.97
2018-02-08T15:48:55.553Z,65.70
2018-02-08T15:51:23.793Z,60.40
2018-02-08T15:53:51.974Z,61.30
2018-02-08T15:56:20.178Z,61.57
2018-02-08T15:58:49.358Z,63.17
2018-02-08T16:01:17.549Z,59.70
2018-02-08T16:03:45.705Z,62.53
2018-02-08T16:06:13.922Z,58.73
2018-02-08T16:08:45.137Z,60.83
2018-02-08T16:11:13.317Z,58.63
2018-02-08T16:13:41.445Z,63.17
2018-02-08T16:16:10.357Z,54.90
2018-02-08T16:18:50.921Z,63.70
2018-02-08T16:21:19.074Z,60.33
2018-02-08T16:23:47.217Z,61.07
2018-02-08T16:26:15.371Z,58.73
2018-02-08T16:28:47.717Z,60.00
2018-02-08T16:31:15.901Z,62.27
2018-02-08T16:33:44.037Z,58.63
2018-02-08T16:36:12.210Z,59.20
2018-02-08T16:38:55.216Z,66.50
2018-02-08T16:41:24.134Z,63.50
2018-02-08T16:43:52.271Z,64.43
2018-02-08T16:46:21.430Z,61.60
2018-02-08T16:48:53.379Z,63.30
2018-02-08T16:51:21.578Z,63.90
2018-02-08T16:53:49.741Z,59.23
2018-02-08T16:56:17.872Z,68.67
2018-02-08T16:58:54.276Z,70.27
2018-02-08T17:01:22.454Z,75.03
2018-02-08T17:03:50.606Z,75.40
2018-02-08T17:06:18.732Z,72.90
2018-02-08T17:08:47.909Z,65.13
2018-02-08T17:11:16.050Z,75.13
2018-02-08T17:13:44.197Z,72.57
2018-02-08T17:16:13.097Z,71.93
2018-02-08T17:18:43.256Z,62.20
2018-02-08T17:21:11.392Z,67.37
2018-02-08T17:23:39.541Z,70.03
2018-02-08T17:26:08.457Z,73.20
2018-02-08T17:28:36.617Z,64.80
2018-02-08T17:31:05.525Z,72.50
2018-02-08T17:33:33.681Z,65.70
2018-02-08T17:36:02.581Z,68.97
2018-02-08T17:38:33.969Z,71.87
2018-02-08T17:41:02.108Z,69.93
2018-02-08T17:43:30.257Z,70.70
2018-02-08T17:45:59.168Z,75.27
2018-02-08T17:48:52.542Z,66.93
2018-02-08T17:51:20.686Z,66.87
2018-02-08T17:53:49.617Z,71.83
2018-02-08T17:56:17.753Z,71.60
2018-02-08T17:59:07.454Z,81.17
2018-02-08T18:01:35.589Z,64.53
2018-02-08T18:04:03.741Z,72.03
2018-02-08T18:06:31.884Z,64.60
2018-02-08T18:09:09.392Z,61.33
2018-02-08T18:11:37.524Z,67.97
2018-02-08T18:14:13.610Z,66.03
2018-02-08T18:16:41.748Z,71.80
2018-02-08T18:19:11.626Z,85.13
2018-02-08T18:21:39.769Z,67.93
2018-02-08T18:24:07.905Z,75.43
2018-02-08T18:26:36.833Z,80.90
2018-02-08T18:29:09.924Z,74.00
2018-02-08T18:31:38.102Z,76.30
2018-02-08T18:34:06.244Z,77.27
2018-02-08T18:36:34.406Z,78.63
2018-02-08T18:39:02.553Z,78.10
2018-02-08T18:41:30.717Z,77.87
2018-02-08T18:43:58.858Z,75.70
2018-02-08T18:46:27.013Z,76.20
2018-02-08T18:49:09.105Z,70.33
2018-02-08T18:51:38.025Z,82.23
2018-02-08T18:54:06.168Z,78.20
2018-02-08T18:56:35.090Z,76.53
2018-02-08T18:59:03.231Z,81.27
2018-02-08T19:01:31.407Z,87.77
2018-02-08T19:04:00.308Z,83.73
2018-02-08T19:06:28.473Z,86.43
2018-02-08T19:08:56.612Z,87.43
2018-02-08T19:11:24.797Z,84.90
2018-02-08T19:13:52.932Z,78.03
2018-02-08T19:16:21.087Z,87.57
2018-02-08T19:18:52.757Z,85.07
2018-02-08T19:21:21.008Z,79.70
2018-02-08T19:23:49.152Z,79.37
2018-02-08T19:26:18.068Z,86.23
2018-02-08T19:28:47.187Z,83.13
2018-02-08T19:31:15.351Z,77.57
2018-02-08T19:33:43.492Z,80.73
2018-02-08T19:36:12.415Z,79.07
2018-02-08T19:38:44.070Z,81.00
2018-02-08T19:41:12.243Z,92.33
2018-02-08T19:43:40.391Z,86.80
2018-02-08T19:46:09.376Z,80.97
2018-02-08T19:48:41.180Z,76.00
2018-02-08T19:51:09.347Z,82.40
2018-02-08T19:53:37.545Z,81.03
2018-02-08T19:56:05.705Z,86.40
2018-02-08T19:58:33.841Z,93.20
2018-02-08T20:01:02.025Z,91.20
2018-02-08T20:03:30.160Z,85.43
2018-02-08T20:05:58.326Z,97.20
2018-02-08T20:08:26.473Z,95.27
2018-02-08T20:10:54.625Z,93.97
2018-02-08T20:13:22.773Z,86.10
2018-02-08T20:15:51.740Z,90.33
2018-02-08T20:18:19.865Z,99.03
2018-02-08T20:20:48.007Z,91.07
2018-02-08T20:23:16.929Z,93.77
2018-02-08T20:25:45.513Z,100.87
2018-02-08T20:28:13.669Z,93.17
2018-02-08T20:31:02.645Z,85.70
2018-02-08T20:33:30.793Z,92.53
2018-02-08T20:35:58.941Z,90.70
2018-02-08T20:38:27.112Z,84.50
2018-02-08T20:40:55.257Z,89.33
2018-02-08T20:43:32.784Z,88.63
2018-02-08T20:46:00.920Z,93.60
2018-02-08T20:48:29.081Z,84.13
2018-02-08T20:50:57.216Z,98.10
2018-02-08T20:53:26.154Z,92.27
2018-02-08T20:55:54.317Z,93.73
2018-02-08T20:58:22.473Z,88.63
2018-02-08T21:00:50.617Z,91.57
2018-02-08T21:03:19.536Z,95.13
2018-02-08T21:05:47.669Z,88.70
2018-02-08T21:08:15.821Z,98.07
2018-02-08T21:10:43.967Z,86.83
2018-02-08T21:13:12.129Z,91.17
2018-02-08T21:15:40.268Z,89.40
2018-02-08T21:18:09.217Z,91.37
2018-02-08T21:20:46.749Z,90.63
2018-02-08T21:23:14.909Z,98.13
2018-02-08T21:25:43.080Z,80.73
2018-02-08T21:28:11.326Z,97.83
2018-02-08T21:30:40.505Z,93.77
2018-02-08T21:33:08.677Z,94.13
2018-02-08T21:35:36.821Z,85.20
2018-02-08T21:38:06.693Z,88.43
2018-02-08T21:40:49.673Z,87.03
2018-02-08T21:43:17.831Z,81.87
2018-02-08T21:45:46.736Z,76.37
2018-02-08T21:48:15.658Z,80.43
2018-02-08T21:50:43.793Z,83.53
2018-02-08T21:53:12.717Z,75.10
2018-02-08T21:55:40.873Z,80.93
2018-02-08T21:58:09.034Z,82.87
2018-02-08T22:00:39.908Z,79.30
2018-02-08T22:03:08.057Z,82.53
2018-02-08T22:05:36.193Z,78.53
2018-02-08T22:08:04.350Z,80.40
2018-02-08T22:10:49.568Z,88.63
2018-02-08T22:13:17.720Z,85.33
2018-02-08T22:15:46.662Z,87.47
2018-02-08T22:18:14.808Z,83.17
2018-02-08T22:20:42.953Z,84.40
2018-02-08T22:23:11.114Z,83.30
2018-02-08T22:25:39.253Z,83.23
2018-02-08T22:28:07.441Z,86.30
2018-02-08T22:30:39.693Z,92.27
2018-02-08T22:33:07.859Z,96.63
2018-02-08T22:35:35.996Z,84.47
2018-02-08T22:38:04.916Z,88.80
2018-02-08T22:40:33.054Z,92.07
2018-02-08T22:43:01.225Z,97.47
2018-02-08T22:45:29.374Z,100.00
2018-02-08T22:47:57.525Z,91.63
2018-02-08T22:50:25.666Z,87.37
2018-02-08T22:52:54.588Z,88.23
2018-02-08T22:55:22.729Z,83.20
2018-02-08T22:57:51.698Z,89.40
2018-02-08T23:00:27.813Z,90.93
2018-02-08T23:02:55.969Z,91.10
2018-02-08T23:05:24.885Z,96.13
2018-02-08T23:07:53.025Z,91.43
2018-02-08T23:10:28.918Z,93.07
2018-02-08T23:12:57.251Z,90.27
2018-02-08T23:15:26.193Z,95.27
2018-02-08T23:17:54.329Z,100.07
2018-02-08T23:20:26.936Z,94.07
2018-02-08T23:22:55.077Z,83.10
2018-02-08T23:25:23.228Z,82.80
2018-02-08T23:27:52.132Z,85.37
2018-02-08T23:30:21.252Z,77.33
2018-02-08T23:32:49.397Z,78.97
2018-02-08T23:35:18.334Z,81.27
2018-02-08T23:37:46.477Z,79.97
2018-02-08T23:40:14.636Z,80.33
2018-02-08T23:42:42.785Z,79.23
2018-02-08T23:45:10.949Z,76.60
2018-02-08T23:47:39.090Z,77.40
2018-02-08T23:50:19.685Z,77.17
2018-02-08T23:52:47.829Z,77.20
2018-02-08T23:55:16.003Z,80.40
2018-02-08T23:57:44.163Z,78.63
